sensor_id;sensor_type;location;lat;lon;timestamp;P1;durP1;ratioP1;P2;durP2;ratioP2
47129;SDS011;69689;48.122;11.542;2024-01-16T06:03:17;1.45;;;1.27;;
47129;SDS011;69689;48.122;11.542;2024-01-16T06:05:44;2.40;;;1.33;;
47129;SDS011;69689;48.122;11.542;2024-01-16T06:08:09;1.52;;;1.20;;
47129;SDS011;69689;48.122;11.542;2024-01-16T06:10:34;2.25;;;2.05;;
47129;SDS011;69689;48.122;11.542;2024-01-16T06:13:00;2.45;;;2.25;;
47129;SDS011;69689;48.122;11.542;2024-01-16T06:15:25;0.93;;;0.93;;
47129;SDS011;69689;48.122;11.542;2024-01-16T06:17:50;2.22;;;1.10;;
47129;SDS011;69689;48.122;11.542;2024-01-16T06:20:15;2.17;;;1.63;;
47129;SDS011;69689;48.122;11.542;2024-01-16T06:22:41;1.40;;;1.08;;
47129;SDS011;69689;48.122;11.542;2024-01-16T06:25:06;3.13;;;2.92;;
47129;SDS011;69689;48.122;11.542;2024-01-16T06:27:32;1.25;;;1.13;;
47129;SDS011;69689;48.122;11.542;2024-01-16T06:29:57;1.45;;;1.02;;
47129;SDS011;69689;48.122;11.542;2024-01-16T06:32:23;3.42;;;1.20;;
47129;SDS011;69689;48.122;11.542;2024-01-16T06:34:48;0.80;;;0.80;;
47129;SDS011;69689;48.122;11.542;2024-01-16T06:37:13;0.70;;;0.70;;
47129;SDS011;69689;48.122;11.542;2024-01-16T06:39:39;3.10;;;1.05;;
47129;SDS011;69689;48.122;11.542;2024-01-16T06:42:04;1.17;;;1.08;;
47129;SDS011;69689;48.122;11.542;2024-01-16T06:44:30;0.98;;;0.80;;
47129;SDS011;69689;48.122;11.542;2024-01-16T06:46:55;1.48;;;1.15;;
47129;SDS011;69689;48.122;11.542;2024-01-16T06:49:20;1.30;;;1.20;;
47129;SDS011;69689;48.122;11.542;2024-01-16T06:51:46;3.50;;;1.92;;
47129;SDS011;69689;48.122;11.542;2024-01-16T06:54:11;2.90;;;1.42;;
47129;SDS011;69689;48.122;11.542;2024-01-16T06:56:36;3.47;;;2.20;;
47129;SDS011;69689;48.122;11.542;2024-01-16T06:59:02;1.67;;;1.58;;
47129;SDS011;69689;48.122;11.542;2024-01-16T07:01:27;1.35;;;1.23;;
47129;SDS011;69689;48.122;11.542;2024-01-16T07:03:52;1.58;;;1.20;;
47129;SDS011;69689;48.122;11.542;2024-01-16T07:06:18;1.08;;;0.98;;
47129;SDS011;69689;48.122;11.542;2024-01-16T07:08:44;3.85;;;1.83;;
47129;SDS011;69689;48.122;11.542;2024-01-16T07:11:09;1.67;;;1.58;;
47129;SDS011;69689;48.122;11.542;2024-01-16T07:13:38;2.67;;;2.20;;
47129;SDS011;69689;48.122;11.542;2024-01-16T07:16:03;2.05;;;1.30;;
47129;SDS011;69689;48.122;11.542;2024-01-16T07:18:29;3.10;;;1.75;;
47129;SDS011;69689;48.122;11.542;2024-01-16T07:20:54;2.58;;;1.88;;
47129;SDS011;69689;48.122;11.542;2024-01-16T07:23:20;2.45;;;1.35;;
47129;SDS011;69689;48.122;11.542;2024-01-16T07:25:45;0.63;;;0.63;;
47129;SDS011;69689;48.122;11.542;2024-01-16T07:28:10;4.88;;;1.13;;
47129;SDS011;69689;48.122;11.542;2024-01-16T07:30:36;3.28;;;2.25;;
47129;SDS011;69689;48.122;11.542;2024-01-16T07:33:01;2.38;;;0.93;;
47129;SDS011;69689;48.122;11.542;2024-01-16T07:35:27;1.63;;;1.33;;
47129;SDS011;69689;48.122;11.542;2024-01-16T07:37:53;3.92;;;1.50;;
47129;SDS011;69689;48.122;11.542;2024-01-16T07:40:18;6.13;;;1.95;;
47129;SDS011;69689;48.122;11.542;2024-01-16T07:42:43;3.85;;;1.98;;
47129;SDS011;69689;48.122;11.542;2024-01-16T07:45:09;2.63;;;1.45;;
47129;SDS011;69689;48.122;11.542;2024-01-16T07:47:34;7.70;;;2.80;;
47129;SDS011;69689;48.122;11.542;2024-01-16T07:50:01;7.43;;;3.22;;
47129;SDS011;69689;48.122;11.542;2024-01-16T07:52:27;0.60;;;0.60;;
47129;SDS011;69689;48.122;11.542;2024-01-16T07:54:52;6.65;;;2.38;;
47129;SDS011;69689;48.122;11.542;2024-01-16T07:57:18;1.83;;;1.73;;
47129;SDS011;69689;48.122;11.542;2024-01-16T07:59:44;2.42;;;1.88;;
47129;SDS011;69689;48.122;11.542;2024-01-16T08:02:09;5.55;;;2.22;;
47129;SDS011;69689;48.122;11.542;2024-01-16T08:04:34;5.43;;;2.47;;
47129;SDS011;69689;48.122;11.542;2024-01-16T08:07:00;2.75;;;2.00;;
47129;SDS011;69689;48.122;11.542;2024-01-16T08:09:25;3.60;;;2.10;;
47129;SDS011;69689;48.122;11.542;2024-01-16T08:11:51;2.30;;;2.10;;
47129;SDS011;69689;48.122;11.542;2024-01-16T08:14:16;12.45;;;7.53;;
47129;SDS011;69689;48.122;11.542;2024-01-16T08:16:42;3.33;;;2.08;;
47129;SDS011;69689;48.122;11.542;2024-01-16T08:19:07;4.07;;;3.08;;
47129;SDS011;69689;48.122;11.542;2024-01-16T08:21:32;3.75;;;2.38;;
47129;SDS011;69689;48.122;11.542;2024-01-16T08:23:58;5.78;;;2.22;;
47129;SDS011;69689;48.122;11.542;2024-01-16T08:26:23;3.33;;;2.38;;
47129;SDS011;69689;48.122;11.542;2024-01-16T08:28:49;3.00;;;1.90;;
47129;SDS011;69689;48.122;11.542;2024-01-16T08:31:16;7.80;;;3.28;;
47129;SDS011;69689;48.122;11.542;2024-01-16T08:33:42;6.57;;;3.03;;
47129;SDS011;69689;48.122;11.542;2024-01-16T08:36:08;3.25;;;2.05;;
47129;SDS011;69689;48.122;11.542;2024-01-16T08:38:33;3.70;;;1.80;;
47129;SDS011;69689;48.122;11.542;2024-01-16T08:40:58;5.93;;;2.95;;
47129;SDS011;69689;48.122;11.542;2024-01-16T08:43:24;3.42;;;2.15;;
47129;SDS011;69689;48.122;11.542;2024-01-16T08:45:49;7.38;;;3.90;;
47129;SDS011;69689;48.122;11.542;2024-01-16T08:48:15;7.13;;;3.30;;
47129;SDS011;69689;48.122;11.542;2024-01-16T08:50:41;4.22;;;2.33;;
47129;SDS011;69689;48.122;11.542;2024-01-16T08:53:06;6.43;;;3.47;;
47129;SDS011;69689;48.122;11.542;2024-01-16T08:55:32;4.05;;;2.00;;
47129;SDS011;69689;48.122;11.542;2024-01-16T08:57:57;3.75;;;2.28;;
47129;SDS011;69689;48.122;11.542;2024-01-16T09:00:23;3.13;;;2.70;;
47129;SDS011;69689;48.122;11.542;2024-01-16T09:02:48;5.22;;;2.70;;
47129;SDS011;69689;48.122;11.542;2024-01-16T09:05:17;1.33;;;1.23;;
47129;SDS011;69689;48.122;11.542;2024-01-16T09:07:42;4.30;;;2.30;;
47129;SDS011;69689;48.122;11.542;2024-01-16T09:10:08;3.75;;;2.35;;
47129;SDS011;69689;48.122;11.542;2024-01-16T09:12:33;6.63;;;2.70;;
47129;SDS011;69689;48.122;11.542;2024-01-16T09:14:59;6.85;;;3.50;;
47129;SDS011;69689;48.122;11.542;2024-01-16T09:17:24;4.75;;;2.50;;
47129;SDS011;69689;48.122;11.542;2024-01-16T09:19:51;6.53;;;2.60;;
47129;SDS011;69689;48.122;11.542;2024-01-16T09:22:16;3.45;;;2.10;;
47129;SDS011;69689;48.122;11.542;2024-01-16T09:24:42;3.38;;;2.55;;
47129;SDS011;69689;48.122;11.542;2024-01-16T09:27:08;3.30;;;1.98;;
47129;SDS011;69689;48.122;11.542;2024-01-16T09:29:35;4.30;;;2.75;;
47129;SDS011;69689;48.122;11.542;2024-01-16T09:32:03;6.35;;;3.10;;
47129;SDS011;69689;48.122;11.542;2024-01-16T09:34:29;4.50;;;2.58;;
47129;SDS011;69689;48.122;11.542;2024-01-16T09:36:54;4.05;;;2.75;;
47129;SDS011;69689;48.122;11.542;2024-01-16T09:39:24;2.78;;;2.25;;
47129;SDS011;69689;48.122;11.542;2024-01-16T09:41:49;2.75;;;2.00;;
47129;SDS011;69689;48.122;11.542;2024-01-16T09:44:14;2.55;;;1.65;;
47129;SDS011;69689;48.122;11.542;2024-01-16T09:46:40;2.80;;;2.30;;
47129;SDS011;69689;48.122;11.542;2024-01-16T09:49:06;5.55;;;3.17;;
47129;SDS011;69689;48.122;11.542;2024-01-16T09:51:31;3.10;;;2.03;;
47129;SDS011;69689;48.122;11.542;2024-01-16T09:53:57;5.43;;;3.33;;
47129;SDS011;69689;48.122;11.542;2024-01-16T09:56:23;5.00;;;2.42;;
47129;SDS011;69689;48.122;11.542;2024-01-16T09:58:49;3.22;;;1.67;;
47129;SDS011;69689;48.122;11.542;2024-01-16T10:01:20;4.15;;;2.75;;
47129;SDS011;69689;48.122;11.542;2024-01-16T10:03:46;5.15;;;2.85;;
47129;SDS011;69689;48.122;11.542;2024-01-16T10:06:12;3.88;;;2.25;;
47129;SDS011;69689;48.122;11.542;2024-01-16T10:08:38;4.85;;;2.10;;
47129;SDS011;69689;48.122;11.542;2024-01-16T10:11:04;9.15;;;4.50;;
47129;SDS011;69689;48.122;11.542;2024-01-16T10:13:29;7.00;;;3.67;;
47129;SDS011;69689;48.122;11.542;2024-01-16T10:15:56;4.10;;;2.47;;
47129;SDS011;69689;48.122;11.542;2024-01-16T10:18:23;4.80;;;2.95;;
47129;SDS011;69689;48.122;11.542;2024-01-16T10:20:49;4.55;;;3.05;;
47129;SDS011;69689;48.122;11.542;2024-01-16T10:23:21;4.15;;;2.28;;
47129;SDS011;69689;48.122;11.542;2024-01-16T10:25:57;5.70;;;2.20;;
47129;SDS011;69689;48.122;11.542;2024-01-16T10:28:29;4.53;;;2.60;;
47129;SDS011;69689;48.122;11.542;2024-01-16T10:31:01;4.25;;;2.78;;
47129;SDS011;69689;48.122;11.542;2024-01-16T10:33:27;4.70;;;2.40;;
47129;SDS011;69689;48.122;11.542;2024-01-16T10:35:55;5.95;;;2.47;;
47129;SDS011;69689;48.122;11.542;2024-01-16T10:38:34;7.15;;;2.65;;
47129;SDS011;69689;48.122;11.542;2024-01-16T10:43:33;4.22;;;2.38;;
47129;SDS011;69689;48.122;11.542;2024-01-16T10:46:17;2.83;;;1.98;;
47129;SDS011;69689;48.122;11.542;2024-01-16T10:48:43;3.10;;;2.25;;
47129;SDS011;69689;48.122;11.542;2024-01-16T10:51:10;5.07;;;2.53;;
47129;SDS011;69689;48.122;11.542;2024-01-16T10:53:37;2.72;;;1.58;;
47129;SDS011;69689;48.122;11.542;2024-01-16T10:56:12;5.72;;;2.25;;
47129;SDS011;69689;48.122;11.542;2024-01-16T10:58:38;3.50;;;2.15;;
47129;SDS011;69689;48.122;11.542;2024-01-16T11:01:05;6.53;;;2.60;;
47129;SDS011;69689;48.122;11.542;2024-01-16T11:03:40;3.67;;;2.28;;
47129;SDS011;69689;48.122;11.542;2024-01-16T11:06:07;3.17;;;2.13;;
47129;SDS011;69689;48.122;11.542;2024-01-16T11:08:34;3.17;;;2.05;;
47129;SDS011;69689;48.122;11.542;2024-01-16T11:11:01;5.20;;;2.70;;
47129;SDS011;69689;48.122;11.542;2024-01-16T11:13:28;5.78;;;2.53;;
47129;SDS011;69689;48.122;11.542;2024-01-16T11:15:54;4.18;;;2.00;;
47129;SDS011;69689;48.122;11.542;2024-01-16T11:18:20;1.98;;;1.42;;
47129;SDS011;69689;48.122;11.542;2024-01-16T11:20:46;2.53;;;1.75;;
47129;SDS011;69689;48.122;11.542;2024-01-16T11:23:11;5.18;;;2.38;;
47129;SDS011;69689;48.122;11.542;2024-01-16T11:25:38;8.85;;;2.72;;
47129;SDS011;69689;48.122;11.542;2024-01-16T11:28:07;7.07;;;2.90;;
47129;SDS011;69689;48.122;11.542;2024-01-16T11:30:39;4.80;;;2.08;;
47129;SDS011;69689;48.122;11.542;2024-01-16T11:33:05;4.38;;;2.47;;
47129;SDS011;69689;48.122;11.542;2024-01-16T11:35:32;4.82;;;2.25;;
47129;SDS011;69689;48.122;11.542;2024-01-16T11:38:10;4.55;;;2.22;;
47129;SDS011;69689;48.122;11.542;2024-01-16T11:40:41;4.57;;;1.95;;
47129;SDS011;69689;48.122;11.542;2024-01-16T11:43:34;3.08;;;1.75;;
47129;SDS011;69689;48.122;11.542;2024-01-16T11:45:57;1.80;;;1.52;;
47129;SDS011;69689;48.122;11.542;2024-01-16T11:48:23;3.45;;;2.20;;
47129;SDS011;69689;48.122;11.542;2024-01-16T11:50:49;4.00;;;2.28;;
47129;SDS011;69689;48.122;11.542;2024-01-16T11:56:01;3.60;;;2.13;;
47129;SDS011;69689;48.122;11.542;2024-01-16T11:59:06;3.40;;;2.22;;
47129;SDS011;69689;48.122;11.542;2024-01-16T12:01:38;4.68;;;2.22;;
47129;SDS011;69689;48.122;11.542;2024-01-16T12:04:07;6.32;;;3.08;;
47129;SDS011;69689;48.122;11.542;2024-01-16T12:06:34;5.28;;;2.03;;
47129;SDS011;69689;48.122;11.542;2024-01-16T12:09:13;2.65;;;1.63;;
47129;SDS011;69689;48.122;11.542;2024-01-16T12:11:40;3.53;;;2.00;;
47129;SDS011;69689;48.122;11.542;2024-01-16T12:14:08;3.00;;;1.85;;
47129;SDS011;69689;48.122;11.542;2024-01-16T12:16:33;3.05;;;1.40;;
47129;SDS011;69689;48.122;11.542;2024-01-16T12:19:05;2.13;;;1.23;;
47129;SDS011;69689;48.122;11.542;2024-01-16T12:21:32;2.92;;;1.40;;
47129;SDS011;69689;48.122;11.542;2024-01-16T12:23:59;4.60;;;1.90;;
47129;SDS011;69689;48.122;11.542;2024-01-16T12:26:24;3.25;;;1.90;;
47129;SDS011;69689;48.122;11.542;2024-01-16T12:28:53;3.78;;;1.55;;
47129;SDS011;69689;48.122;11.542;2024-01-16T12:31:19;5.93;;;1.83;;
47129;SDS011;69689;48.122;11.542;2024-01-16T12:33:44;3.28;;;2.10;;
47129;SDS011;69689;48.122;11.542;2024-01-16T12:36:09;4.47;;;2.13;;
47129;SDS011;69689;48.122;11.542;2024-01-16T12:38:35;2.55;;;1.55;;
47129;SDS011;69689;48.122;11.542;2024-01-16T12:41:01;3.50;;;2.00;;
47129;SDS011;69689;48.122;11.542;2024-01-16T12:43:27;3.97;;;2.03;;
47129;SDS011;69689;48.122;11.542;2024-01-16T12:45:55;2.85;;;1.63;;
47129;SDS011;69689;48.122;11.542;2024-01-16T12:48:25;2.58;;;1.70;;
47129;SDS011;69689;48.122;11.542;2024-01-16T12:50:51;2.67;;;1.70;;
47129;SDS011;69689;48.122;11.542;2024-01-16T12:53:16;5.78;;;2.00;;
47129;SDS011;69689;48.122;11.542;2024-01-16T12:55:44;3.70;;;1.80;;
47129;SDS011;69689;48.122;11.542;2024-01-16T12:58:20;2.42;;;1.77;;
47129;SDS011;69689;48.122;11.542;2024-01-16T13:00:46;2.85;;;1.40;;
47129;SDS011;69689;48.122;11.542;2024-01-16T13:08:16;2.20;;;1.58;;
47129;SDS011;69689;48.122;11.542;2024-01-16T13:10:42;2.22;;;1.30;;
47129;SDS011;69689;48.122;11.542;2024-01-16T13:13:14;2.38;;;1.20;;
47129;SDS011;69689;48.122;11.542;2024-01-16T13:15:40;2.03;;;1.33;;
47129;SDS011;69689;48.122;11.542;2024-01-16T13:18:06;1.45;;;1.23;;
47129;SDS011;69689;48.122;11.542;2024-01-16T13:20:31;2.42;;;1.35;;
47129;SDS011;69689;48.122;11.542;2024-01-16T13:22:57;2.47;;;1.50;;
47129;SDS011;69689;48.122;11.542;2024-01-16T13:25:22;4.05;;;1.77;;
47129;SDS011;69689;48.122;11.542;2024-01-16T13:27:47;1.23;;;1.10;;
47129;SDS011;69689;48.122;11.542;2024-01-16T13:30:13;2.28;;;1.00;;
47129;SDS011;69689;48.122;11.542;2024-01-16T13:32:39;3.92;;;1.73;;
47129;SDS011;69689;48.122;11.542;2024-01-16T13:35:04;2.45;;;1.25;;
47129;SDS011;69689;48.122;11.542;2024-01-16T13:37:33;3.75;;;1.20;;
47129;SDS011;69689;48.122;11.542;2024-01-16T13:40:02;2.65;;;1.42;;
47129;SDS011;69689;48.122;11.542;2024-01-16T13:42:28;1.60;;;1.05;;
47129;SDS011;69689;48.122;11.542;2024-01-16T13:44:53;1.10;;;1.00;;
47129;SDS011;69689;48.122;11.542;2024-01-16T13:47:19;1.23;;;1.00;;
47129;SDS011;69689;48.122;11.542;2024-01-16T13:49:44;2.88;;;1.45;;
47129;SDS011;69689;48.122;11.542;2024-01-16T13:52:10;2.33;;;1.20;;
47129;SDS011;69689;48.122;11.542;2024-01-16T13:54:36;2.78;;;1.25;;
47129;SDS011;69689;48.122;11.542;2024-01-16T13:57:03;2.13;;;1.60;;
47129;SDS011;69689;48.122;11.542;2024-01-16T13:59:29;1.52;;;1.30;;
47129;SDS011;69689;48.122;11.542;2024-01-16T14:01:54;1.85;;;1.27;;
47129;SDS011;69689;48.122;11.542;2024-01-16T14:04:19;1.95;;;1.17;;
47129;SDS011;69689;48.122;11.542;2024-01-16T14:06:45;4.13;;;2.13;;
47129;SDS011;69689;48.122;11.542;2024-01-16T14:09:10;2.30;;;1.40;;
47129;SDS011;69689;48.122;11.542;2024-01-16T14:11:36;4.07;;;2.40;;
47129;SDS011;69689;48.122;11.542;2024-01-16T14:14:02;2.92;;;1.45;;
47129;SDS011;69689;48.122;11.542;2024-01-16T14:16:28;2.58;;;1.67;;
47129;SDS011;69689;48.122;11.542;2024-01-16T14:18:53;2.88;;;1.65;;
47129;SDS011;69689;48.122;11.542;2024-01-16T14:21:19;19.38;;;7.93;;
47129;SDS011;69689;48.122;11.542;2024-01-16T14:23:44;2.30;;;1.23;;
47129;SDS011;69689;48.122;11.542;2024-01-16T14:26:09;6.40;;;1.67;;
47129;SDS011;69689;48.122;11.542;2024-01-16T14:28:35;3.42;;;1.35;;
47129;SDS011;69689;48.122;11.542;2024-01-16T14:31:00;3.42;;;1.35;;
47129;SDS011;69689;48.122;11.542;2024-01-16T14:33:26;1.73;;;1.17;;
47129;SDS011;69689;48.122;11.542;2024-01-16T14:35:52;4.72;;;1.65;;
47129;SDS011;69689;48.122;11.542;2024-01-16T14:38:17;3.35;;;2.00;;
47129;SDS011;69689;48.122;11.542;2024-01-16T14:40:43;4.45;;;2.10;;
47129;SDS011;69689;48.122;11.542;2024-01-16T14:43:08;4.38;;;2.00;;
47129;SDS011;69689;48.122;11.542;2024-01-16T14:45:33;4.65;;;1.67;;
47129;SDS011;69689;48.122;11.542;2024-01-16T14:47:59;4.53;;;1.67;;
47129;SDS011;69689;48.122;11.542;2024-01-16T14:50:25;2.47;;;1.48;;
47129;SDS011;69689;48.122;11.542;2024-01-16T14:52:51;2.40;;;1.17;;
47129;SDS011;69689;48.122;11.542;2024-01-16T14:55:16;5.65;;;3.30;;
47129;SDS011;69689;48.122;11.542;2024-01-16T14:57:42;3.90;;;2.05;;
47129;SDS011;69689;48.122;11.542;2024-01-16T15:00:09;2.03;;;1.38;;
47129;SDS011;69689;48.122;11.542;2024-01-16T15:03:01;3.45;;;1.88;;
47129;SDS011;69689;48.122;11.542;2024-01-16T15:05:27;4.22;;;2.05;;
47129;SDS011;69689;48.122;11.542;2024-01-16T15:07:52;5.85;;;2.28;;
47129;SDS011;69689;48.122;11.542;2024-01-16T15:10:18;4.05;;;1.90;;
47129;SDS011;69689;48.122;11.542;2024-01-16T15:12:43;3.67;;;2.15;;
47129;SDS011;69689;48.122;11.542;2024-01-16T15:15:10;3.80;;;1.85;;
47129;SDS011;69689;48.122;11.542;2024-01-16T15:17:38;3.15;;;2.15;;
47129;SDS011;69689;48.122;11.542;2024-01-16T15:20:04;5.78;;;1.80;;
47129;SDS011;69689;48.122;11.542;2024-01-16T15:22:33;7.10;;;1.98;;
47129;SDS011;69689;48.122;11.542;2024-01-16T15:24:59;6.07;;;2.53;;
47129;SDS011;69689;48.122;11.542;2024-01-16T15:27:24;4.03;;;2.15;;
47129;SDS011;69689;48.122;11.542;2024-01-16T15:29:50;3.42;;;2.17;;
47129;SDS011;69689;48.122;11.542;2024-01-16T15:32:15;3.95;;;2.50;;
47129;SDS011;69689;48.122;11.542;2024-01-16T15:34:41;5.38;;;2.67;;
47129;SDS011;69689;48.122;11.542;2024-01-16T15:37:06;5.70;;;3.40;;
47129;SDS011;69689;48.122;11.542;2024-01-16T15:39:32;7.05;;;2.20;;
47129;SDS011;69689;48.122;11.542;2024-01-16T15:41:57;8.30;;;3.47;;
47129;SDS011;69689;48.122;11.542;2024-01-16T15:44:23;5.90;;;3.13;;
47129;SDS011;69689;48.122;11.542;2024-01-16T15:46:58;5.28;;;2.17;;
47129;SDS011;69689;48.122;11.542;2024-01-16T15:49:24;4.10;;;2.50;;
47129;SDS011;69689;48.122;11.542;2024-01-16T15:51:50;4.53;;;2.60;;
47129;SDS011;69689;48.122;11.542;2024-01-16T15:54:15;4.32;;;2.20;;
47129;SDS011;69689;48.122;11.542;2024-01-16T15:56:41;4.53;;;2.90;;
47129;SDS011;69689;48.122;11.542;2024-01-16T15:59:07;3.35;;;2.17;;
47129;SDS011;69689;48.122;11.542;2024-01-16T16:01:32;4.22;;;1.90;;
47129;SDS011;69689;48.122;11.542;2024-01-16T16:03:58;4.80;;;2.75;;
47129;SDS011;69689;48.122;11.542;2024-01-16T16:06:23;4.70;;;2.22;;
47129;SDS011;69689;48.122;11.542;2024-01-16T16:08:49;6.88;;;3.40;;
47129;SDS011;69689;48.122;11.542;2024-01-16T16:11:14;5.75;;;3.00;;
47129;SDS011;69689;48.122;11.542;2024-01-16T16:13:40;4.03;;;2.60;;
47129;SDS011;69689;48.122;11.542;2024-01-16T16:16:06;7.65;;;2.13;;
47129;SDS011;69689;48.122;11.542;2024-01-16T16:18:31;5.88;;;2.35;;
47129;SDS011;69689;48.122;11.542;2024-01-16T16:21:01;4.22;;;1.90;;
47129;SDS011;69689;48.122;11.542;2024-01-16T16:23:26;8.65;;;4.55;;
47129;SDS011;69689;48.122;11.542;2024-01-16T16:25:52;6.60;;;4.43;;
47129;SDS011;69689;48.122;11.542;2024-01-16T16:28:17;4.90;;;2.97;;
47129;SDS011;69689;48.122;11.542;2024-01-16T16:30:42;3.88;;;2.83;;
47129;SDS011;69689;48.122;11.542;2024-01-16T16:33:08;8.75;;;3.28;;
47129;SDS011;69689;48.122;11.542;2024-01-16T16:35:34;6.32;;;2.50;;
47129;SDS011;69689;48.122;11.542;2024-01-16T16:37:59;4.15;;;2.08;;
47129;SDS011;69689;48.122;11.542;2024-01-16T16:40:25;3.75;;;2.30;;
47129;SDS011;69689;48.122;11.542;2024-01-16T16:42:50;3.85;;;2.65;;
47129;SDS011;69689;48.122;11.542;2024-01-16T16:45:16;8.65;;;3.03;;
47129;SDS011;69689;48.122;11.542;2024-01-16T16:47:42;5.55;;;2.90;;
47129;SDS011;69689;48.122;11.542;2024-01-16T16:50:07;5.85;;;3.03;;
47129;SDS011;69689;48.122;11.542;2024-01-16T16:52:34;3.17;;;2.35;;
47129;SDS011;69689;48.122;11.542;2024-01-16T16:54:59;6.30;;;3.13;;
47129;SDS011;69689;48.122;11.542;2024-01-16T16:57:24;10.68;;;3.88;;
47129;SDS011;69689;48.122;11.542;2024-01-16T16:59:50;2.88;;;2.25;;
47129;SDS011;69689;48.122;11.542;2024-01-16T17:02:15;6.15;;;3.90;;
47129;SDS011;69689;48.122;11.542;2024-01-16T17:04:41;7.88;;;3.38;;
47129;SDS011;69689;48.122;11.542;2024-01-16T17:07:07;6.47;;;3.10;;
47129;SDS011;69689;48.122;11.542;2024-01-16T17:09:33;4.88;;;2.42;;
47129;SDS011;69689;48.122;11.542;2024-01-16T17:11:58;9.48;;;2.97;;
47129;SDS011;69689;48.122;11.542;2024-01-16T17:14:24;5.57;;;3.15;;
47129;SDS011;69689;48.122;11.542;2024-01-16T17:16:50;5.32;;;3.25;;
47129;SDS011;69689;48.122;11.542;2024-01-16T17:19:15;5.55;;;3.58;;
47129;SDS011;69689;48.122;11.542;2024-01-16T17:21:40;10.60;;;4.75;;
47129;SDS011;69689;48.122;11.542;2024-01-16T17:24:06;9.80;;;5.25;;
47129;SDS011;69689;48.122;11.542;2024-01-16T17:26:32;11.40;;;4.32;;
47129;SDS011;69689;48.122;11.542;2024-01-16T17:28:58;9.75;;;3.78;;
47129;SDS011;69689;48.122;11.542;2024-01-16T17:31:26;8.65;;;4.93;;
47129;SDS011;69689;48.122;11.542;2024-01-16T17:33:52;9.98;;;5.15;;
47129;SDS011;69689;48.122;11.542;2024-01-16T17:36:17;9.40;;;5.05;;
47129;SDS011;69689;48.122;11.542;2024-01-16T17:38:45;12.13;;;6.28;;
47129;SDS011;69689;48.122;11.542;2024-01-16T17:41:10;11.70;;;6.13;;
47129;SDS011;69689;48.122;11.542;2024-01-16T17:43:36;11.77;;;5.30;;
47129;SDS011;69689;48.122;11.542;2024-01-16T17:46:03;11.85;;;4.68;;
47129;SDS011;69689;48.122;11.542;2024-01-16T17:48:29;12.35;;;6.38;;
47129;SDS011;69689;48.122;11.542;2024-01-16T17:50:54;12.57;;;4.50;;
47129;SDS011;69689;48.122;11.542;2024-01-16T17:53:20;8.70;;;5.55;;
47129;SDS011;69689;48.122;11.542;2024-01-16T17:55:45;8.82;;;3.60;;
47129;SDS011;69689;48.122;11.542;2024-01-16T17:58:11;10.73;;;6.28;;
47129;SDS011;69689;48.122;11.542;2024-01-16T18:00:37;16.02;;;7.72;;
47129;SDS011;69689;48.122;11.542;2024-01-16T18:03:03;14.23;;;7.97;;
47129;SDS011;69689;48.122;11.542;2024-01-16T18:05:28;39.50;;;13.93;;
47129;SDS011;69689;48.122;11.542;2024-01-16T18:07:58;55.85;;;20.48;;
47129;SDS011;69689;48.122;11.542;2024-01-16T18:10:24;13.80;;;5.68;;
47129;SDS011;69689;48.122;11.542;2024-01-16T18:12:49;14.38;;;8.82;;
47129;SDS011;69689;48.122;11.542;2024-01-16T18:15:15;17.40;;;10.02;;
47129;SDS011;69689;48.122;11.542;2024-01-16T18:17:41;18.48;;;9.13;;
47129;SDS011;69689;48.122;11.542;2024-01-16T18:20:10;15.15;;;6.40;;
47129;SDS011;69689;48.122;11.542;2024-01-16T18:25:07;13.25;;;8.75;;
47129;SDS011;69689;48.122;11.542;2024-01-16T18:27:33;16.42;;;7.30;;
47129;SDS011;69689;48.122;11.542;2024-01-16T18:29:59;15.90;;;6.93;;
47129;SDS011;69689;48.122;11.542;2024-01-16T18:32:25;5.18;;;4.50;;
47129;SDS011;69689;48.122;11.542;2024-01-16T18:34:50;9.85;;;6.95;;
47129;SDS011;69689;48.122;11.542;2024-01-16T18:37:16;9.50;;;6.60;;
47129;SDS011;69689;48.122;11.542;2024-01-16T18:39:43;14.10;;;5.82;;
47129;SDS011;69689;48.122;11.542;2024-01-16T18:42:08;18.77;;;6.93;;
47129;SDS011;69689;48.122;11.542;2024-01-16T18:44:34;17.30;;;6.05;;
47129;SDS011;69689;48.122;11.542;2024-01-16T18:46:59;16.00;;;5.97;;
47129;SDS011;69689;48.122;11.542;2024-01-16T18:49:24;14.80;;;5.97;;
47129;SDS011;69689;48.122;11.542;2024-01-16T18:51:51;6.40;;;4.68;;
47129;SDS011;69689;48.122;11.542;2024-01-16T18:54:17;7.28;;;4.47;;
47129;SDS011;69689;48.122;11.542;2024-01-16T18:56:42;8.27;;;5.20;;
47129;SDS011;69689;48.122;11.542;2024-01-16T18:59:08;7.30;;;4.78;;
47129;SDS011;69689;48.122;11.542;2024-01-16T19:01:33;11.82;;;5.25;;
47129;SDS011;69689;48.122;11.542;2024-01-16T19:03:59;10.10;;;5.65;;
47129;SDS011;69689;48.122;11.542;2024-01-16T19:06:25;8.45;;;4.60;;
47129;SDS011;69689;48.122;11.542;2024-01-16T19:08:50;9.18;;;5.28;;
47129;SDS011;69689;48.122;11.542;2024-01-16T19:11:15;7.85;;;4.65;;
47129;SDS011;69689;48.122;11.542;2024-01-16T19:13:41;7.82;;;4.70;;
47129;SDS011;69689;48.122;11.542;2024-01-16T19:16:12;9.77;;;5.78;;
47129;SDS011;69689;48.122;11.542;2024-01-16T19:18:38;6.55;;;4.70;;
47129;SDS011;69689;48.122;11.542;2024-01-16T19:21:06;4.28;;;3.55;;
47129;SDS011;69689;48.122;11.542;2024-01-16T19:23:33;7.50;;;5.35;;
47129;SDS011;69689;48.122;11.542;2024-01-16T19:25:58;4.60;;;3.00;;
47129;SDS011;69689;48.122;11.542;2024-01-16T19:28:27;9.77;;;5.63;;
47129;SDS011;69689;48.122;11.542;2024-01-16T19:30:53;12.43;;;6.00;;
47129;SDS011;69689;48.122;11.542;2024-01-16T19:33:19;9.25;;;6.93;;
47129;SDS011;69689;48.122;11.542;2024-01-16T19:35:44;8.27;;;3.17;;
47129;SDS011;69689;48.122;11.542;2024-01-16T19:38:10;7.25;;;5.25;;
47129;SDS011;69689;48.122;11.542;2024-01-16T19:40:35;9.73;;;5.13;;
47129;SDS011;69689;48.122;11.542;2024-01-16T19:43:00;4.00;;;3.58;;
47129;SDS011;69689;48.122;11.542;2024-01-16T19:45:30;9.98;;;5.55;;
47129;SDS011;69689;48.122;11.542;2024-01-16T19:47:58;8.90;;;5.82;;
47129;SDS011;69689;48.122;11.542;2024-01-16T19:50:23;7.55;;;4.40;;
47129;SDS011;69689;48.122;11.542;2024-01-16T19:52:50;8.15;;;5.47;;
47129;SDS011;69689;48.122;11.542;2024-01-16T19:55:19;9.15;;;5.82;;
47129;SDS011;69689;48.122;11.542;2024-01-16T19:57:48;8.68;;;5.25;;
47129;SDS011;69689;48.122;11.542;2024-01-16T20:00:14;9.52;;;7.00;;
